Airfield :
LOGIN :

Register | Disclaimer

   EN    FR    IT 

 










Legend :    VFR   Marginal VFR   IFR   Intensive IFR   Very Intensive IFR
Visi :
Ceiling :
>= 8 km
>= 3000ft
5 to 8 km
1000 to 3000 ft
1500m to 5 km
500 to 1000 ft
800 to 1500m
200 to 500 ft
< 800m
< 200 ft
Symbols :   Thunderstorms  Fog  Heavy snow  Heavy precipitations  Wind > 20 kt
SIGMETs :     Misc.  Thunderstorms  Icing  Turbulence  Mountain Waves  Volcanic Ashes






- Airport Elevation : 1416 ft
- IATA code : ZRH


LSZH - Zurich

CURRENT METAR :
  • 212250Z 27001KT 6000 NSC M04/M05 Q1036 NOSIG

EXPIRED METARs :
  • 212220Z VRB01KT 6000 NSC M05/M06 Q1036 NOSIG
  • 212150Z VRB01KT 6000 NSC M04/M05 Q1036 NOSIG
  • 212120Z VRB01KT 6000 NSC M04/M05 Q1036 NOSIG
  • 212050Z VRB02KT 6000 NSC M04/M05 Q1036 NOSIG
  • 212020Z VRB02KT 8000 NSC M03/M04 Q1036 NOSIG

TAF TAF LSZH
Valid from the 21 at 21:00 until the 23 at 03:00 UTC


212025Z 2121/2303 03004KT 7000 NSC TX02/2214Z TNM04/2206Z
BECMG 2122/2124 4000 BR
BECMG 2200/2202 1500 BCFG SCT004
PROB40 2203/2208 0500 FZFG VV002
BECMG 2208/2211 7000 NSW
TEMPO 2212/2216 CAVOK
BECMG 2221/2223 4500 BR SCT005
ATIS : +41 43 816 2295 (DEP) +41 43 816 2294 (ARR)



MET'MAP, your aeronautical weather chart ! - Copyright ORBIFLY December 2007 - Disclaimer

ORBIFLY MET'MAP TEAM :

Programming & Development : Alexandra Zaïnal
Concept & original design : Baudouin d'Aumeries
Assistance for programming : Marc-Olivier Méhu
Technical & hardware support : Manuel Goepfert

Contact : metmap@orbifly.com




SOURCES & CREDITS :

   NOAA